sensor_id;sensor_type;location;lat;lon;timestamp;P1;durP1;ratioP1;P2;durP2;ratioP2
53903;SDS011;39812;52.430;16.936;2023-08-31T00:02:11;16.98;;;11.25;;
53903;SDS011;39812;52.430;16.936;2023-08-31T00:04:36;20.40;;;10.00;;
53903;SDS011;39812;52.430;16.936;2023-08-31T00:07:02;17.02;;;11.65;;
53903;SDS011;39812;52.430;16.936;2023-08-31T00:09:28;18.02;;;10.98;;
53903;SDS011;39812;52.430;16.936;2023-08-31T00:11:57;17.15;;;11.38;;
53903;SDS011;39812;52.430;16.936;2023-08-31T00:14:25;17.88;;;10.75;;
53903;SDS011;39812;52.430;16.936;2023-08-31T00:16:51;16.02;;;10.25;;
53903;SDS011;39812;52.430;16.936;2023-08-31T00:19:17;16.77;;;10.07;;
53903;SDS011;39812;52.430;16.936;2023-08-31T00:21:44;16.98;;;10.85;;
53903;SDS011;39812;52.430;16.936;2023-08-31T00:24:09;17.65;;;11.50;;
53903;SDS011;39812;52.430;16.936;2023-08-31T00:26:36;16.65;;;11.18;;
53903;SDS011;39812;52.430;16.936;2023-08-31T00:29:06;16.60;;;11.20;;
53903;SDS011;39812;52.430;16.936;2023-08-31T00:31:32;17.00;;;11.35;;
53903;SDS011;39812;52.430;16.936;2023-08-31T00:33:58;18.17;;;11.25;;
53903;SDS011;39812;52.430;16.936;2023-08-31T00:36:30;19.38;;;10.98;;
53903;SDS011;39812;52.430;16.936;2023-08-31T00:38:56;17.77;;;10.55;;
53903;SDS011;39812;52.430;16.936;2023-08-31T00:41:22;15.25;;;9.85;;
53903;SDS011;39812;52.430;16.936;2023-08-31T00:43:48;14.70;;;9.60;;
53903;SDS011;39812;52.430;16.936;2023-08-31T00:46:13;14.10;;;10.25;;
53903;SDS011;39812;52.430;16.936;2023-08-31T00:48:40;18.17;;;9.85;;
53903;SDS011;39812;52.430;16.936;2023-08-31T00:51:06;12.65;;;8.88;;
53903;SDS011;39812;52.430;16.936;2023-08-31T00:53:33;15.80;;;10.27;;
53903;SDS011;39812;52.430;16.936;2023-08-31T00:56:00;17.10;;;9.70;;
53903;SDS011;39812;52.430;16.936;2023-08-31T00:58:27;16.38;;;9.73;;
53903;SDS011;39812;52.430;16.936;2023-08-31T01:06:25;15.10;;;9.95;;
53903;SDS011;39812;52.430;16.936;2023-08-31T01:09:10;21.52;;;10.43;;
53903;SDS011;39812;52.430;16.936;2023-08-31T01:14:16;12.82;;;9.77;;
53903;SDS011;39812;52.430;16.936;2023-08-31T01:16:44;16.20;;;9.85;;
53903;SDS011;39812;52.430;16.936;2023-08-31T01:19:17;13.93;;;9.55;;
53903;SDS011;39812;52.430;16.936;2023-08-31T01:21:52;18.60;;;10.07;;
53903;SDS011;39812;52.430;16.936;2023-08-31T01:24:22;15.23;;;9.55;;
53903;SDS011;39812;52.430;16.936;2023-08-31T01:26:49;11.90;;;8.77;;
53903;SDS011;39812;52.430;16.936;2023-08-31T01:29:15;15.35;;;8.65;;
53903;SDS011;39812;52.430;16.936;2023-08-31T01:31:41;17.65;;;9.15;;
53903;SDS011;39812;52.430;16.936;2023-08-31T01:34:08;14.18;;;9.48;;
53903;SDS011;39812;52.430;16.936;2023-08-31T01:36:35;12.35;;;8.85;;
53903;SDS011;39812;52.430;16.936;2023-08-31T01:39:11;16.63;;;8.95;;
53903;SDS011;39812;52.430;16.936;2023-08-31T01:41:44;15.57;;;8.85;;
53903;SDS011;39812;52.430;16.936;2023-08-31T01:44:16;11.90;;;8.40;;
53903;SDS011;39812;52.430;16.936;2023-08-31T01:46:45;10.43;;;8.05;;
53903;SDS011;39812;52.430;16.936;2023-08-31T01:49:11;15.05;;;8.57;;
53903;SDS011;39812;52.430;16.936;2023-08-31T01:51:37;16.50;;;9.32;;
53903;SDS011;39812;52.430;16.936;2023-08-31T01:54:03;12.90;;;8.40;;
53903;SDS011;39812;52.430;16.936;2023-08-31T01:56:29;16.00;;;8.95;;
53903;SDS011;39812;52.430;16.936;2023-08-31T01:58:54;13.15;;;8.88;;
53903;SDS011;39812;52.430;16.936;2023-08-31T02:01:20;12.52;;;8.02;;
53903;SDS011;39812;52.430;16.936;2023-08-31T02:03:45;18.08;;;9.85;;
53903;SDS011;39812;52.430;16.936;2023-08-31T02:06:11;13.88;;;9.20;;
53903;SDS011;39812;52.430;16.936;2023-08-31T02:08:37;12.98;;;9.15;;
53903;SDS011;39812;52.430;16.936;2023-08-31T02:11:02;15.57;;;9.38;;
53903;SDS011;39812;52.430;16.936;2023-08-31T02:13:29;13.85;;;9.07;;
53903;SDS011;39812;52.430;16.936;2023-08-31T02:15:55;15.27;;;8.63;;
53903;SDS011;39812;52.430;16.936;2023-08-31T02:18:20;18.23;;;10.05;;
53903;SDS011;39812;52.430;16.936;2023-08-31T02:20:46;17.17;;;9.95;;
53903;SDS011;39812;52.430;16.936;2023-08-31T02:23:12;15.07;;;10.38;;
53903;SDS011;39812;52.430;16.936;2023-08-31T02:25:37;15.68;;;10.15;;
53903;SDS011;39812;52.430;16.936;2023-08-31T02:28:03;14.80;;;9.32;;
53903;SDS011;39812;52.430;16.936;2023-08-31T02:30:29;18.40;;;10.25;;
53903;SDS011;39812;52.430;16.936;2023-08-31T02:32:55;15.18;;;9.73;;
53903;SDS011;39812;52.430;16.936;2023-08-31T02:35:20;15.43;;;9.98;;
53903;SDS011;39812;52.430;16.936;2023-08-31T02:37:46;14.05;;;10.07;;
53903;SDS011;39812;52.430;16.936;2023-08-31T02:40:12;19.67;;;10.60;;
53903;SDS011;39812;52.430;16.936;2023-08-31T02:42:38;14.38;;;9.13;;
53903;SDS011;39812;52.430;16.936;2023-08-31T02:45:03;15.98;;;10.40;;
53903;SDS011;39812;52.430;16.936;2023-08-31T02:47:29;15.80;;;11.48;;
53903;SDS011;39812;52.430;16.936;2023-08-31T02:49:55;15.30;;;11.02;;
53903;SDS011;39812;52.430;16.936;2023-08-31T02:52:21;16.25;;;10.90;;
53903;SDS011;39812;52.430;16.936;2023-08-31T02:54:47;15.00;;;10.15;;
53903;SDS011;39812;52.430;16.936;2023-08-31T02:57:12;14.35;;;10.75;;
53903;SDS011;39812;52.430;16.936;2023-08-31T02:59:40;14.15;;;9.88;;
53903;SDS011;39812;52.430;16.936;2023-08-31T03:02:07;14.15;;;10.32;;
53903;SDS011;39812;52.430;16.936;2023-08-31T03:04:33;17.83;;;10.80;;
53903;SDS011;39812;52.430;16.936;2023-08-31T03:06:59;15.02;;;10.45;;
53903;SDS011;39812;52.430;16.936;2023-08-31T03:09:24;17.58;;;11.35;;
53903;SDS011;39812;52.430;16.936;2023-08-31T03:11:50;17.05;;;10.95;;
53903;SDS011;39812;52.430;16.936;2023-08-31T03:14:15;16.63;;;10.35;;
53903;SDS011;39812;52.430;16.936;2023-08-31T03:16:41;17.52;;;11.60;;
53903;SDS011;39812;52.430;16.936;2023-08-31T03:19:07;16.92;;;11.55;;
53903;SDS011;39812;52.430;16.936;2023-08-31T03:21:32;14.88;;;10.95;;
53903;SDS011;39812;52.430;16.936;2023-08-31T03:23:59;18.52;;;12.18;;
53903;SDS011;39812;52.430;16.936;2023-08-31T03:26:24;18.52;;;11.82;;
53903;SDS011;39812;52.430;16.936;2023-08-31T03:28:50;18.73;;;11.60;;
53903;SDS011;39812;52.430;16.936;2023-08-31T03:31:15;21.20;;;11.95;;
53903;SDS011;39812;52.430;16.936;2023-08-31T03:33:41;19.15;;;11.80;;
53903;SDS011;39812;52.430;16.936;2023-08-31T03:36:07;16.90;;;11.50;;
53903;SDS011;39812;52.430;16.936;2023-08-31T03:38:32;16.27;;;11.68;;
53903;SDS011;39812;52.430;16.936;2023-08-31T03:41:02;18.02;;;11.15;;
53903;SDS011;39812;52.430;16.936;2023-08-31T03:43:28;19.23;;;11.90;;
53903;SDS011;39812;52.430;16.936;2023-08-31T03:45:54;17.73;;;11.88;;
53903;SDS011;39812;52.430;16.936;2023-08-31T03:48:21;17.27;;;12.23;;
53903;SDS011;39812;52.430;16.936;2023-08-31T03:50:50;21.25;;;13.07;;
53903;SDS011;39812;52.430;16.936;2023-08-31T03:53:17;22.88;;;13.32;;
53903;SDS011;39812;52.430;16.936;2023-08-31T03:55:42;19.08;;;13.07;;
53903;SDS011;39812;52.430;16.936;2023-08-31T03:58:08;21.23;;;13.30;;
53903;SDS011;39812;52.430;16.936;2023-08-31T04:00:34;17.77;;;12.25;;
53903;SDS011;39812;52.430;16.936;2023-08-31T04:02:59;19.83;;;12.25;;
53903;SDS011;39812;52.430;16.936;2023-08-31T04:05:25;18.17;;;12.63;;
53903;SDS011;39812;52.430;16.936;2023-08-31T04:07:53;21.45;;;13.45;;
53903;SDS011;39812;52.430;16.936;2023-08-31T04:10:19;23.35;;;12.70;;
53903;SDS011;39812;52.430;16.936;2023-08-31T04:12:45;27.98;;;13.15;;
53903;SDS011;39812;52.430;16.936;2023-08-31T04:15:10;20.50;;;12.52;;
53903;SDS011;39812;52.430;16.936;2023-08-31T04:17:36;19.23;;;12.60;;
53903;SDS011;39812;52.430;16.936;2023-08-31T04:20:02;18.70;;;12.45;;
53903;SDS011;39812;52.430;16.936;2023-08-31T04:22:30;22.80;;;12.82;;
53903;SDS011;39812;52.430;16.936;2023-08-31T04:24:56;19.67;;;12.20;;
53903;SDS011;39812;52.430;16.936;2023-08-31T04:27:22;20.63;;;13.18;;
53903;SDS011;39812;52.430;16.936;2023-08-31T04:29:47;20.00;;;13.20;;
53903;SDS011;39812;52.430;16.936;2023-08-31T04:32:13;19.50;;;12.50;;
53903;SDS011;39812;52.430;16.936;2023-08-31T04:34:39;19.48;;;13.15;;
53903;SDS011;39812;52.430;16.936;2023-08-31T04:37:04;22.50;;;14.07;;
53903;SDS011;39812;52.430;16.936;2023-08-31T04:39:30;21.25;;;13.27;;
53903;SDS011;39812;52.430;16.936;2023-08-31T04:41:56;20.23;;;13.43;;
53903;SDS011;39812;52.430;16.936;2023-08-31T04:44:21;19.88;;;13.73;;
53903;SDS011;39812;52.430;16.936;2023-08-31T04:46:47;22.42;;;13.23;;
53903;SDS011;39812;52.430;16.936;2023-08-31T04:49:13;22.67;;;13.02;;
53903;SDS011;39812;52.430;16.936;2023-08-31T04:51:39;20.42;;;12.90;;
53903;SDS011;39812;52.430;16.936;2023-08-31T04:54:06;19.77;;;12.38;;
53903;SDS011;39812;52.430;16.936;2023-08-31T04:56:33;19.33;;;12.23;;
53903;SDS011;39812;52.430;16.936;2023-08-31T04:58:59;21.65;;;13.00;;
53903;SDS011;39812;52.430;16.936;2023-08-31T05:01:26;18.88;;;13.20;;
53903;SDS011;39812;52.430;16.936;2023-08-31T05:03:52;18.60;;;13.15;;
53903;SDS011;39812;52.430;16.936;2023-08-31T05:06:17;25.17;;;14.30;;
53903;SDS011;39812;52.430;16.936;2023-08-31T05:08:43;20.55;;;13.80;;
53903;SDS011;39812;52.430;16.936;2023-08-31T05:11:08;19.10;;;13.35;;
53903;SDS011;39812;52.430;16.936;2023-08-31T05:13:34;21.48;;;12.93;;
53903;SDS011;39812;52.430;16.936;2023-08-31T05:16:00;22.70;;;12.95;;
53903;SDS011;39812;52.430;16.936;2023-08-31T05:18:25;23.35;;;13.45;;
53903;SDS011;39812;52.430;16.936;2023-08-31T05:20:51;22.67;;;13.63;;
53903;SDS011;39812;52.430;16.936;2023-08-31T05:23:17;22.33;;;13.00;;
53903;SDS011;39812;52.430;16.936;2023-08-31T05:25:45;18.60;;;12.38;;
53903;SDS011;39812;52.430;16.936;2023-08-31T05:28:11;17.50;;;12.80;;
53903;SDS011;39812;52.430;16.936;2023-08-31T05:30:45;23.25;;;13.02;;
53903;SDS011;39812;52.430;16.936;2023-08-31T05:33:15;17.27;;;12.00;;
53903;SDS011;39812;52.430;16.936;2023-08-31T05:35:42;21.38;;;11.45;;
53903;SDS011;39812;52.430;16.936;2023-08-31T05:38:07;17.48;;;10.68;;
53903;SDS011;39812;52.430;16.936;2023-08-31T05:40:33;17.13;;;11.05;;
53903;SDS011;39812;52.430;16.936;2023-08-31T05:42:58;18.48;;;10.55;;
53903;SDS011;39812;52.430;16.936;2023-08-31T05:45:24;15.25;;;9.80;;
53903;SDS011;39812;52.430;16.936;2023-08-31T05:47:49;12.32;;;9.38;;
53903;SDS011;39812;52.430;16.936;2023-08-31T05:50:15;14.27;;;8.77;;
53903;SDS011;39812;52.430;16.936;2023-08-31T05:52:41;13.80;;;9.00;;
53903;SDS011;39812;52.430;16.936;2023-08-31T05:55:09;13.00;;;9.00;;
53903;SDS011;39812;52.430;16.936;2023-08-31T05:57:35;11.93;;;9.05;;
53903;SDS011;39812;52.430;16.936;2023-08-31T06:00:02;14.68;;;8.82;;
53903;SDS011;39812;52.430;16.936;2023-08-31T06:02:29;13.32;;;8.65;;
53903;SDS011;39812;52.430;16.936;2023-08-31T06:04:54;14.68;;;9.40;;
53903;SDS011;39812;52.430;16.936;2023-08-31T06:07:21;10.98;;;8.30;;
53903;SDS011;39812;52.430;16.936;2023-08-31T06:09:47;14.57;;;8.68;;
53903;SDS011;39812;52.430;16.936;2023-08-31T06:12:13;13.13;;;8.73;;
53903;SDS011;39812;52.430;16.936;2023-08-31T06:14:39;12.82;;;9.20;;
53903;SDS011;39812;52.430;16.936;2023-08-31T06:17:04;13.68;;;9.02;;
53903;SDS011;39812;52.430;16.936;2023-08-31T06:19:30;12.05;;;7.93;;
53903;SDS011;39812;52.430;16.936;2023-08-31T06:21:55;9.65;;;7.40;;
53903;SDS011;39812;52.430;16.936;2023-08-31T06:24:21;11.50;;;8.73;;
53903;SDS011;39812;52.430;16.936;2023-08-31T06:26:47;12.45;;;9.40;;
53903;SDS011;39812;52.430;16.936;2023-08-31T06:29:12;11.73;;;8.35;;
53903;SDS011;39812;52.430;16.936;2023-08-31T06:31:38;13.55;;;8.02;;
53903;SDS011;39812;52.430;16.936;2023-08-31T06:34:03;11.07;;;8.07;;
53903;SDS011;39812;52.430;16.936;2023-08-31T06:36:29;11.38;;;8.70;;
53903;SDS011;39812;52.430;16.936;2023-08-31T06:38:55;11.98;;;8.18;;
53903;SDS011;39812;52.430;16.936;2023-08-31T06:41:20;19.00;;;8.98;;
53903;SDS011;39812;52.430;16.936;2023-08-31T06:43:46;11.13;;;7.90;;
53903;SDS011;39812;52.430;16.936;2023-08-31T06:46:12;12.02;;;7.65;;
53903;SDS011;39812;52.430;16.936;2023-08-31T06:48:37;10.68;;;8.35;;
53903;SDS011;39812;52.430;16.936;2023-08-31T06:51:03;15.68;;;7.65;;
53903;SDS011;39812;52.430;16.936;2023-08-31T06:53:29;9.57;;;7.88;;
53903;SDS011;39812;52.430;16.936;2023-08-31T06:55:56;14.52;;;8.45;;
53903;SDS011;39812;52.430;16.936;2023-08-31T06:58:22;13.48;;;7.95;;
53903;SDS011;39812;52.430;16.936;2023-08-31T07:00:47;13.32;;;9.70;;
53903;SDS011;39812;52.430;16.936;2023-08-31T07:03:13;11.32;;;8.50;;
53903;SDS011;39812;52.430;16.936;2023-08-31T07:05:41;9.80;;;8.27;;
53903;SDS011;39812;52.430;16.936;2023-08-31T07:08:07;12.95;;;7.97;;
53903;SDS011;39812;52.430;16.936;2023-08-31T07:10:33;10.95;;;8.63;;
53903;SDS011;39812;52.430;16.936;2023-08-31T07:13:01;10.80;;;7.93;;
53903;SDS011;39812;52.430;16.936;2023-08-31T07:15:28;10.48;;;7.95;;
53903;SDS011;39812;52.430;16.936;2023-08-31T07:17:54;9.20;;;7.35;;
53903;SDS011;39812;52.430;16.936;2023-08-31T07:20:19;10.43;;;7.18;;
53903;SDS011;39812;52.430;16.936;2023-08-31T07:22:45;9.82;;;7.05;;
53903;SDS011;39812;52.430;16.936;2023-08-31T07:25:11;7.55;;;5.55;;
53903;SDS011;39812;52.430;16.936;2023-08-31T07:27:37;7.30;;;6.50;;
53903;SDS011;39812;52.430;16.936;2023-08-31T07:30:03;7.57;;;5.68;;
53903;SDS011;39812;52.430;16.936;2023-08-31T07:32:30;8.43;;;5.90;;
53903;SDS011;39812;52.430;16.936;2023-08-31T07:34:56;8.05;;;5.78;;
53903;SDS011;39812;52.430;16.936;2023-08-31T07:37:22;7.82;;;5.63;;
53903;SDS011;39812;52.430;16.936;2023-08-31T07:39:47;6.38;;;5.32;;
53903;SDS011;39812;52.430;16.936;2023-08-31T07:42:13;7.35;;;5.60;;
53903;SDS011;39812;52.430;16.936;2023-08-31T07:44:39;6.55;;;5.15;;
53903;SDS011;39812;52.430;16.936;2023-08-31T07:47:06;6.75;;;5.47;;
53903;SDS011;39812;52.430;16.936;2023-08-31T07:49:32;6.47;;;5.57;;
53903;SDS011;39812;52.430;16.936;2023-08-31T07:51:58;7.13;;;5.70;;
53903;SDS011;39812;52.430;16.936;2023-08-31T07:54:24;7.53;;;5.88;;
53903;SDS011;39812;52.430;16.936;2023-08-31T07:56:50;8.80;;;5.78;;
53903;SDS011;39812;52.430;16.936;2023-08-31T07:59:17;6.80;;;5.50;;
53903;SDS011;39812;52.430;16.936;2023-08-31T08:01:43;7.05;;;5.65;;
53903;SDS011;39812;52.430;16.936;2023-08-31T08:04:10;6.85;;;6.07;;
53903;SDS011;39812;52.430;16.936;2023-08-31T08:06:36;7.13;;;5.55;;
53903;SDS011;39812;52.430;16.936;2023-08-31T08:09:02;6.25;;;5.05;;
53903;SDS011;39812;52.430;16.936;2023-08-31T08:11:29;5.90;;;5.18;;
53903;SDS011;39812;52.430;16.936;2023-08-31T08:13:55;6.82;;;5.70;;
53903;SDS011;39812;52.430;16.936;2023-08-31T08:16:21;9.25;;;6.68;;
53903;SDS011;39812;52.430;16.936;2023-08-31T08:18:46;8.38;;;6.97;;
53903;SDS011;39812;52.430;16.936;2023-08-31T08:21:12;9.50;;;7.38;;
53903;SDS011;39812;52.430;16.936;2023-08-31T08:23:37;10.68;;;7.93;;
53903;SDS011;39812;52.430;16.936;2023-08-31T08:26:03;10.18;;;7.78;;
53903;SDS011;39812;52.430;16.936;2023-08-31T08:28:28;10.65;;;8.75;;
53903;SDS011;39812;52.430;16.936;2023-08-31T08:30:54;11.15;;;7.90;;
53903;SDS011;39812;52.430;16.936;2023-08-31T08:33:20;9.38;;;7.95;;
53903;SDS011;39812;52.430;16.936;2023-08-31T08:35:45;7.63;;;5.47;;
53903;SDS011;39812;52.430;16.936;2023-08-31T08:38:11;7.82;;;5.85;;
53903;SDS011;39812;52.430;16.936;2023-08-31T08:40:37;7.05;;;5.20;;
53903;SDS011;39812;52.430;16.936;2023-08-31T08:43:05;8.80;;;5.70;;
53903;SDS011;39812;52.430;16.936;2023-08-31T08:45:35;7.95;;;5.30;;
53903;SDS011;39812;52.430;16.936;2023-08-31T08:48:04;6.97;;;5.78;;
53903;SDS011;39812;52.430;16.936;2023-08-31T08:50:31;9.65;;;6.20;;
53903;SDS011;39812;52.430;16.936;2023-08-31T08:52:58;6.65;;;4.97;;
53903;SDS011;39812;52.430;16.936;2023-08-31T08:55:25;5.90;;;4.47;;
53903;SDS011;39812;52.430;16.936;2023-08-31T08:57:51;5.78;;;4.10;;
53903;SDS011;39812;52.430;16.936;2023-08-31T09:00:16;5.55;;;3.75;;
53903;SDS011;39812;52.430;16.936;2023-08-31T09:02:42;5.18;;;3.65;;
53903;SDS011;39812;52.430;16.936;2023-08-31T09:05:08;4.50;;;3.65;;
53903;SDS011;39812;52.430;16.936;2023-08-31T09:07:35;4.57;;;3.60;;
53903;SDS011;39812;52.430;16.936;2023-08-31T09:10:03;4.85;;;3.42;;
53903;SDS011;39812;52.430;16.936;2023-08-31T09:12:30;5.03;;;3.88;;
53903;SDS011;39812;52.430;16.936;2023-08-31T09:17:39;4.65;;;3.63;;
53903;SDS011;39812;52.430;16.936;2023-08-31T09:20:07;4.10;;;3.67;;
53903;SDS011;39812;52.430;16.936;2023-08-31T09:22:34;4.30;;;3.47;;
53903;SDS011;39812;52.430;16.936;2023-08-31T09:25:00;4.55;;;3.63;;
53903;SDS011;39812;52.430;16.936;2023-08-31T09:27:25;4.57;;;3.35;;
53903;SDS011;39812;52.430;16.936;2023-08-31T09:29:54;4.18;;;3.22;;
53903;SDS011;39812;52.430;16.936;2023-08-31T09:32:20;4.72;;;3.45;;
53903;SDS011;39812;52.430;16.936;2023-08-31T09:34:46;4.95;;;3.90;;
53903;SDS011;39812;52.430;16.936;2023-08-31T09:37:15;4.78;;;3.47;;
53903;SDS011;39812;52.430;16.936;2023-08-31T09:39:41;4.20;;;3.10;;
53903;SDS011;39812;52.430;16.936;2023-08-31T09:42:07;5.30;;;3.83;;
53903;SDS011;39812;52.430;16.936;2023-08-31T09:44:33;4.05;;;3.40;;
53903;SDS011;39812;52.430;16.936;2023-08-31T09:46:59;4.50;;;3.38;;
53903;SDS011;39812;52.430;16.936;2023-08-31T09:49:25;5.20;;;3.90;;
53903;SDS011;39812;52.430;16.936;2023-08-31T09:51:52;4.85;;;3.05;;
53903;SDS011;39812;52.430;16.936;2023-08-31T09:54:19;4.75;;;3.33;;
53903;SDS011;39812;52.430;16.936;2023-08-31T09:56:46;4.68;;;3.47;;
53903;SDS011;39812;52.430;16.936;2023-08-31T09:59:13;3.78;;;3.33;;
53903;SDS011;39812;52.430;16.936;2023-08-31T10:01:40;4.93;;;3.35;;
53903;SDS011;39812;52.430;16.936;2023-08-31T10:04:07;3.90;;;2.67;;
53903;SDS011;39812;52.430;16.936;2023-08-31T10:06:36;4.95;;;3.15;;
53903;SDS011;39812;52.430;16.936;2023-08-31T10:09:04;6.35;;;3.25;;
53903;SDS011;39812;52.430;16.936;2023-08-31T10:11:31;4.35;;;3.25;;
53903;SDS011;39812;52.430;16.936;2023-08-31T10:13:57;5.05;;;3.63;;
53903;SDS011;39812;52.430;16.936;2023-08-31T10:16:27;5.15;;;3.60;;
53903;SDS011;39812;52.430;16.936;2023-08-31T10:18:53;4.63;;;4.00;;
53903;SDS011;39812;52.430;16.936;2023-08-31T10:21:20;4.97;;;3.78;;
53903;SDS011;39812;52.430;16.936;2023-08-31T10:23:47;5.78;;;3.67;;
53903;SDS011;39812;52.430;16.936;2023-08-31T10:26:26;5.30;;;3.83;;
53903;SDS011;39812;52.430;16.936;2023-08-31T10:28:53;7.80;;;4.70;;
53903;SDS011;39812;52.430;16.936;2023-08-31T10:31:19;6.53;;;3.53;;
53903;SDS011;39812;52.430;16.936;2023-08-31T10:34:00;6.18;;;4.25;;
53903;SDS011;39812;52.430;16.936;2023-08-31T10:36:41;7.28;;;5.05;;
53903;SDS011;39812;52.430;16.936;2023-08-31T10:39:13;10.70;;;5.65;;
53903;SDS011;39812;52.430;16.936;2023-08-31T10:41:42;9.55;;;6.10;;
53903;SDS011;39812;52.430;16.936;2023-08-31T10:44:19;7.45;;;5.18;;
53903;SDS011;39812;52.430;16.936;2023-08-31T10:46:46;7.10;;;4.93;;
53903;SDS011;39812;52.430;16.936;2023-08-31T10:49:13;8.07;;;4.82;;
53903;SDS011;39812;52.430;16.936;2023-08-31T10:51:41;6.50;;;4.03;;
53903;SDS011;39812;52.430;16.936;2023-08-31T10:59:22;5.50;;;3.55;;
53903;SDS011;39812;52.430;16.936;2023-08-31T11:01:53;3.88;;;2.90;;
53903;SDS011;39812;52.430;16.936;2023-08-31T11:04:24;5.45;;;3.40;;
53903;SDS011;39812;52.430;16.936;2023-08-31T11:09:42;4.28;;;3.00;;
53903;SDS011;39812;52.430;16.936;2023-08-31T11:12:08;4.10;;;2.83;;
53903;SDS011;39812;52.430;16.936;2023-08-31T11:14:34;3.75;;;2.60;;
53903;SDS011;39812;52.430;16.936;2023-08-31T11:17:00;4.82;;;2.63;;
53903;SDS011;39812;52.430;16.936;2023-08-31T11:19:27;4.22;;;2.75;;
53903;SDS011;39812;52.430;16.936;2023-08-31T11:21:53;6.88;;;2.00;;
53903;SDS011;39812;52.430;16.936;2023-08-31T11:24:19;3.55;;;2.15;;
53903;SDS011;39812;52.430;16.936;2023-08-31T11:26:51;3.67;;;2.30;;
53903;SDS011;39812;52.430;16.936;2023-08-31T11:29:18;3.53;;;2.13;;
53903;SDS011;39812;52.430;16.936;2023-08-31T11:31:43;3.20;;;1.98;;
53903;SDS011;39812;52.430;16.936;2023-08-31T11:34:13;6.90;;;2.00;;
53903;SDS011;39812;52.430;16.936;2023-08-31T11:36:43;3.75;;;1.90;;
53903;SDS011;39812;52.430;16.936;2023-08-31T11:39:10;3.70;;;2.15;;
53903;SDS011;39812;52.430;16.936;2023-08-31T11:41:36;2.67;;;2.25;;
53903;SDS011;39812;52.430;16.936;2023-08-31T11:44:09;5.68;;;2.10;;
53903;SDS011;39812;52.430;16.936;2023-08-31T11:46:38;3.47;;;1.80;;
53903;SDS011;39812;52.430;16.936;2023-08-31T11:49:06;2.67;;;2.00;;
53903;SDS011;39812;52.430;16.936;2023-08-31T11:51:32;6.25;;;2.33;;
53903;SDS011;39812;52.430;16.936;2023-08-31T11:54:00;3.67;;;1.92;;
53903;SDS011;39812;52.430;16.936;2023-08-31T11:59:11;3.33;;;2.40;;
53903;SDS011;39812;52.430;16.936;2023-08-31T12:01:41;3.88;;;2.20;;
53903;SDS011;39812;52.430;16.936;2023-08-31T12:04:11;6.10;;;2.30;;
53903;SDS011;39812;52.430;16.936;2023-08-31T12:06:41;2.63;;;1.95;;
53903;SDS011;39812;52.430;16.936;2023-08-31T12:09:10;6.03;;;2.75;;
53903;SDS011;39812;52.430;16.936;2023-08-31T12:11:36;3.30;;;2.40;;
53903;SDS011;39812;52.430;16.936;2023-08-31T12:14:17;6.07;;;3.40;;
53903;SDS011;39812;52.430;16.936;2023-08-31T12:16:48;3.72;;;3.15;;
53903;SDS011;39812;52.430;16.936;2023-08-31T12:19:14;4.88;;;3.20;;
53903;SDS011;39812;52.430;16.936;2023-08-31T12:21:41;4.43;;;2.75;;
53903;SDS011;39812;52.430;16.936;2023-08-31T12:24:09;4.55;;;3.28;;
53903;SDS011;39812;52.430;16.936;2023-08-31T12:26:35;4.97;;;3.63;;
53903;SDS011;39812;52.430;16.936;2023-08-31T12:29:01;5.75;;;4.10;;
53903;SDS011;39812;52.430;16.936;2023-08-31T12:31:29;6.50;;;4.10;;
53903;SDS011;39812;52.430;16.936;2023-08-31T12:33:55;5.95;;;3.42;;
53903;SDS011;39812;52.430;16.936;2023-08-31T12:36:21;4.82;;;3.25;;
53903;SDS011;39812;52.430;16.936;2023-08-31T12:38:46;4.63;;;3.20;;
53903;SDS011;39812;52.430;16.936;2023-08-31T12:41:12;5.40;;;2.63;;
53903;SDS011;39812;52.430;16.936;2023-08-31T12:43:38;4.85;;;2.70;;
53903;SDS011;39812;52.430;16.936;2023-08-31T12:46:03;3.50;;;2.20;;
53903;SDS011;39812;52.430;16.936;2023-08-31T12:48:32;3.33;;;2.20;;
53903;SDS011;39812;52.430;16.936;2023-08-31T12:50:58;4.80;;;2.60;;
53903;SDS011;39812;52.430;16.936;2023-08-31T12:53:24;4.63;;;1.70;;
53903;SDS011;39812;52.430;16.936;2023-08-31T12:55:50;3.80;;;2.03;;
53903;SDS011;39812;52.430;16.936;2023-08-31T12:58:15;4.45;;;1.77;;
53903;SDS011;39812;52.430;16.936;2023-08-31T13:00:41;5.07;;;1.60;;
53903;SDS011;39812;52.430;16.936;2023-08-31T13:03:08;3.60;;;1.90;;
53903;SDS011;39812;52.430;16.936;2023-08-31T13:05:34;3.70;;;1.70;;
53903;SDS011;39812;52.430;16.936;2023-08-31T13:08:03;2.72;;;1.58;;
53903;SDS011;39812;52.430;16.936;2023-08-31T13:10:30;3.53;;;1.88;;
53903;SDS011;39812;52.430;16.936;2023-08-31T13:12:56;7.07;;;1.83;;
53903;SDS011;39812;52.430;16.936;2023-08-31T13:15:21;3.25;;;1.80;;
53903;SDS011;39812;52.430;16.936;2023-08-31T13:17:47;2.30;;;1.75;;
53903;SDS011;39812;52.430;16.936;2023-08-31T13:20:12;3.50;;;2.05;;
53903;SDS011;39812;52.430;16.936;2023-08-31T13:22:38;3.22;;;1.80;;
53903;SDS011;39812;52.430;16.936;2023-08-31T13:25:04;2.95;;;1.63;;
53903;SDS011;39812;52.430;16.936;2023-08-31T13:27:30;5.55;;;2.15;;
53903;SDS011;39812;52.430;16.936;2023-08-31T13:29:58;3.28;;;1.70;;
53903;SDS011;39812;52.430;16.936;2023-08-31T13:32:24;3.83;;;1.67;;
53903;SDS011;39812;52.430;16.936;2023-08-31T13:34:50;4.85;;;1.40;;
53903;SDS011;39812;52.430;16.936;2023-08-31T13:37:17;3.05;;;1.40;;
53903;SDS011;39812;52.430;16.936;2023-08-31T13:39:42;2.75;;;1.40;;
53903;SDS011;39812;52.430;16.936;2023-08-31T13:42:08;3.40;;;2.60;;
53903;SDS011;39812;52.430;16.936;2023-08-31T13:44:33;12.13;;;2.30;;
53903;SDS011;39812;52.430;16.936;2023-08-31T13:47:00;2.20;;;1.48;;
53903;SDS011;39812;52.430;16.936;2023-08-31T13:49:28;2.47;;;1.40;;
53903;SDS011;39812;52.430;16.936;2023-08-31T13:51:54;2.45;;;1.58;;
53903;SDS011;39812;52.430;16.936;2023-08-31T13:54:19;3.58;;;1.42;;
53903;SDS011;39812;52.430;16.936;2023-08-31T13:56:45;2.78;;;1.67;;
53903;SDS011;39812;52.430;16.936;2023-08-31T13:59:11;1.85;;;1.30;;
53903;SDS011;39812;52.430;16.936;2023-08-31T14:01:36;2.55;;;1.30;;
53903;SDS011;39812;52.430;16.936;2023-08-31T14:04:03;2.53;;;1.40;;
53903;SDS011;39812;52.430;16.936;2023-08-31T14:06:29;5.15;;;1.60;;
53903;SDS011;39812;52.430;16.936;2023-08-31T14:08:55;3.38;;;1.50;;
53903;SDS011;39812;52.430;16.936;2023-08-31T14:11:20;4.00;;;1.85;;
53903;SDS011;39812;52.430;16.936;2023-08-31T14:13:46;3.80;;;1.52;;
53903;SDS011;39812;52.430;16.936;2023-08-31T14:16:12;2.45;;;1.60;;
53903;SDS011;39812;52.430;16.936;2023-08-31T14:18:37;4.30;;;1.60;;
53903;SDS011;39812;52.430;16.936;2023-08-31T14:21:03;4.88;;;1.60;;
53903;SDS011;39812;52.430;16.936;2023-08-31T14:23:29;3.20;;;1.70;;
53903;SDS011;39812;52.430;16.936;2023-08-31T14:26:00;3.95;;;1.60;;
53903;SDS011;39812;52.430;16.936;2023-08-31T14:28:28;4.93;;;1.70;;
53903;SDS011;39812;52.430;16.936;2023-08-31T14:30:53;6.95;;;1.65;;
53903;SDS011;39812;52.430;16.936;2023-08-31T14:33:19;4.40;;;1.25;;
53903;SDS011;39812;52.430;16.936;2023-08-31T14:35:44;3.75;;;1.45;;
53903;SDS011;39812;52.430;16.936;2023-08-31T14:38:10;3.40;;;1.02;;
53903;SDS011;39812;52.430;16.936;2023-08-31T14:40:40;2.10;;;0.90;;
53903;SDS011;39812;52.430;16.936;2023-08-31T14:43:07;2.65;;;0.80;;